Sofie — WDE7596 — position and weather

sailwx.info

Track history (hours):
 
Tides and Currents Weather Stations Pressure Air Temp Water Temp Dewpoint Dewpoint Depression Visibility Wind Speed Wind Dir Waves Ship Positions

Sofie

Owner: Engel, George, New York, NY. More information available from US FCC via Universal Licensing System and Coast Guard Vessel Documentation Center.

Last reported at 2015-Aug-29 21:33 UTC. Time now 2015-Sep-01 16:16 UTC.
Position N 41°02' W 073°29'.

Length 12 m.

Type: Pleasure craft. MMSI: 367395190.

Date/timePositionNaut miles runAvg speedWind from/ knotsBaromVisibWave heightAir tempDewpointWater temp
2015-Aug-29 21:33N 41°02' W 073°29'1 0.5
2015-Aug-29 20:26N 41°02' W 073°28'4 5.0
2015-Aug-29 19:32N 41°05' W 073°24'  
2015-Aug-27 08:31N 41°02' W 073°32'0 0.0
2015-Aug-27 07:31N 41°02' W 073°32'0 0.0
2015-Aug-26 10:28N 41°02' W 073°32'0 0.0
2015-Aug-25 06:05N 41°02' W 073°32'0 0.0
2015-Aug-25 05:17N 41°02' W 073°32'0 0.0
2015-Aug-25 04:29N 41°02' W 073°32'0 0.0
2015-Aug-23 09:26N 41°02' W 073°32'3 0.3
2015-Aug-22 23:24N 40°59' W 073°30'3 0.3
2015-Aug-22 13:08N 41°02' W 073°32'0 0.0
2015-Aug-22 12:23N 41°02' W 073°32'0 0.0
2015-Aug-22 11:32N 41°02' W 073°32'0 0.0
2015-Aug-22 10:32N 41°02' W 073°32'0 0.0
2015-Aug-22 08:26N 41°02' W 073°32'0 0.0
2015-Aug-22 07:23N 41°02' W 073°32'0 0.0
2015-Aug-22 05:14N 41°02' W 073°32'0 0.0
2015-Aug-22 02:29N 41°02' W 073°32'0 0.0
2015-Aug-22 01:14N 41°02' W 073°32'0 0.0
2015-Aug-21 05:32N 41°02' W 073°32'0 0.0
2015-Aug-21 04:26N 41°02' W 073°32'0 0.0
2015-Aug-21 00:23N 41°02' W 073°32'  
Track history (hours):
 
Tides and Currents Weather Stations Pressure Air Temp Water Temp Dewpoint Dewpoint Depression Visibility Wind Speed Wind Dir Waves Ship Positions

Sofie

Owner: Engel, George, New York, NY. More information available from US FCC via Universal Licensing System and Coast Guard Vessel Documentation Center.

Last reported at 2015-Aug-29 21:33 UTC. Time now 2015-Sep-01 16:16 UTC.
Position N 41°02' W 073°29'.

Length 12 m.

Type: Pleasure craft. MMSI: 367395190.

Date/timePositionNaut miles runAvg speedWind from/ knotsBaromVisibWave heightAir tempDewpointWater temp
2015-Aug-29 21:33N 41°02' W 073°29'1 0.5
2015-Aug-29 20:26N 41°02' W 073°28'4 5.0
2015-Aug-29 19:32N 41°05' W 073°24'  
2015-Aug-27 08:31N 41°02' W 073°32'0 0.0
2015-Aug-27 07:31N 41°02' W 073°32'0 0.0
2015-Aug-26 10:28N 41°02' W 073°32'0 0.0
2015-Aug-25 06:05N 41°02' W 073°32'0 0.0
2015-Aug-25 05:17N 41°02' W 073°32'0 0.0
2015-Aug-25 04:29N 41°02' W 073°32'0 0.0
2015-Aug-23 09:26N 41°02' W 073°32'3 0.3
2015-Aug-22 23:24N 40°59' W 073°30'3 0.3
2015-Aug-22 13:08N 41°02' W 073°32'0 0.0
2015-Aug-22 12:23N 41°02' W 073°32'0 0.0
2015-Aug-22 11:32N 41°02' W 073°32'0 0.0
2015-Aug-22 10:32N 41°02' W 073°32'0 0.0
2015-Aug-22 08:26N 41°02' W 073°32'0 0.0
2015-Aug-22 07:23N 41°02' W 073°32'0 0.0
2015-Aug-22 05:14N 41°02' W 073°32'0 0.0
2015-Aug-22 02:29N 41°02' W 073°32'0 0.0
2015-Aug-22 01:14N 41°02' W 073°32'0 0.0
2015-Aug-21 05:32N 41°02' W 073°32'0 0.0
2015-Aug-21 04:26N 41°02' W 073°32'0 0.0
2015-Aug-21 00:23N 41°02' W 073°32'  

Dump ship's entire track history